sensor_id;sensor_type;location;lat;lon;timestamp;temperature;humidity
34640;DHT22;22600;48.186;11.526;2022-07-11T00:01:35;22.10;72.00
34640;DHT22;22600;48.186;11.526;2022-07-11T00:04:00;22.10;72.00
34640;DHT22;22600;48.186;11.526;2022-07-11T00:06:26;22.10;72.00
34640;DHT22;22600;48.186;11.526;2022-07-11T00:08:51;22.10;72.10
34640;DHT22;22600;48.186;11.526;2022-07-11T00:11:17;22.10;72.10
34640;DHT22;22600;48.186;11.526;2022-07-11T00:13:42;22.10;72.10
34640;DHT22;22600;48.186;11.526;2022-07-11T00:16:08;22.10;72.30
34640;DHT22;22600;48.186;11.526;2022-07-11T00:18:34;22.10;72.30
34640;DHT22;22600;48.186;11.526;2022-07-11T00:20:59;22.00;73.00
34640;DHT22;22600;48.186;11.526;2022-07-11T00:23:25;22.10;72.40
34640;DHT22;22600;48.186;11.526;2022-07-11T00:25:50;22.10;72.40
34640;DHT22;22600;48.186;11.526;2022-07-11T00:28:16;22.00;72.30
34640;DHT22;22600;48.186;11.526;2022-07-11T00:30:42;22.00;72.40
34640;DHT22;22600;48.186;11.526;2022-07-11T00:33:07;22.00;72.40
34640;DHT22;22600;48.186;11.526;2022-07-11T00:35:33;22.00;72.40
34640;DHT22;22600;48.186;11.526;2022-07-11T00:37:58;22.00;72.40
34640;DHT22;22600;48.186;11.526;2022-07-11T00:40:24;22.00;72.40
34640;DHT22;22600;48.186;11.526;2022-07-11T00:42:49;22.00;72.40
34640;DHT22;22600;48.186;11.526;2022-07-11T00:45:15;22.00;72.40
34640;DHT22;22600;48.186;11.526;2022-07-11T00:47:41;22.00;72.40
34640;DHT22;22600;48.186;11.526;2022-07-11T00:50:06;22.10;72.50
34640;DHT22;22600;48.186;11.526;2022-07-11T00:52:34;22.00;72.40
34640;DHT22;22600;48.186;11.526;2022-07-11T00:55:00;22.00;72.50
34640;DHT22;22600;48.186;11.526;2022-07-11T00:57:26;22.00;72.50
34640;DHT22;22600;48.186;11.526;2022-07-11T00:59:52;22.00;72.50
34640;DHT22;22600;48.186;11.526;2022-07-11T01:02:18;22.00;72.50
34640;DHT22;22600;48.186;11.526;2022-07-11T01:04:43;22.00;72.50
34640;DHT22;22600;48.186;11.526;2022-07-11T01:07:09;22.10;72.60
34640;DHT22;22600;48.186;11.526;2022-07-11T01:09:35;22.00;72.50
34640;DHT22;22600;48.186;11.526;2022-07-11T01:12:00;22.00;72.60
34640;DHT22;22600;48.186;11.526;2022-07-11T01:14:27;22.00;72.60
34640;DHT22;22600;48.186;11.526;2022-07-11T01:16:53;22.00;72.50
34640;DHT22;22600;48.186;11.526;2022-07-11T01:19:18;22.00;72.50
34640;DHT22;22600;48.186;11.526;2022-07-11T01:21:49;22.00;72.50
34640;DHT22;22600;48.186;11.526;2022-07-11T01:24:15;22.00;72.50
34640;DHT22;22600;48.186;11.526;2022-07-11T01:26:40;22.00;72.50
34640;DHT22;22600;48.186;11.526;2022-07-11T01:29:09;22.00;72.50
34640;DHT22;22600;48.186;11.526;2022-07-11T01:31:37;22.00;72.50
34640;DHT22;22600;48.186;11.526;2022-07-11T01:34:03;23.60;73.50
34640;DHT22;22600;48.186;11.526;2022-07-11T01:36:30;22.00;72.50
34640;DHT22;22600;48.186;11.526;2022-07-11T01:38:56;22.00;72.50
34640;DHT22;22600;48.186;11.526;2022-07-11T01:41:21;22.00;72.50
34640;DHT22;22600;48.186;11.526;2022-07-11T01:43:47;21.90;72.50
34640;DHT22;22600;48.186;11.526;2022-07-11T01:46:12;22.00;72.50
34640;DHT22;22600;48.186;11.526;2022-07-11T01:48:38;22.00;72.50
34640;DHT22;22600;48.186;11.526;2022-07-11T01:51:04;22.00;72.50
34640;DHT22;22600;48.186;11.526;2022-07-11T01:53:29;22.00;72.40
34640;DHT22;22600;48.186;11.526;2022-07-11T01:55:55;22.00;72.50
34640;DHT22;22600;48.186;11.526;2022-07-11T01:58:20;22.00;72.50
34640;DHT22;22600;48.186;11.526;2022-07-11T02:00:46;24.30;73.80
34640;DHT22;22600;48.186;11.526;2022-07-11T02:03:11;22.00;72.40
34640;DHT22;22600;48.186;11.526;2022-07-11T02:05:37;22.00;72.50
34640;DHT22;22600;48.186;11.526;2022-07-11T02:08:07;22.00;72.50
34640;DHT22;22600;48.186;11.526;2022-07-11T02:13:05;21.90;72.40
34640;DHT22;22600;48.186;11.526;2022-07-11T02:15:30;22.00;72.50
34640;DHT22;22600;48.186;11.526;2022-07-11T02:17:56;21.90;72.40
34640;DHT22;22600;48.186;11.526;2022-07-11T02:20:23;21.90;72.40
34640;DHT22;22600;48.186;11.526;2022-07-11T02:22:49;21.90;72.40
34640;DHT22;22600;48.186;11.526;2022-07-11T02:25:15;21.90;72.40
34640;DHT22;22600;48.186;11.526;2022-07-11T02:27:41;21.90;72.40
34640;DHT22;22600;48.186;11.526;2022-07-11T02:30:07;21.90;72.40
34640;DHT22;22600;48.186;11.526;2022-07-11T02:32:33;21.90;72.50
34640;DHT22;22600;48.186;11.526;2022-07-11T02:34:59;22.00;72.50
34640;DHT22;22600;48.186;11.526;2022-07-11T02:37:25;21.90;72.40
34640;DHT22;22600;48.186;11.526;2022-07-11T02:39:50;21.90;72.50
34640;DHT22;22600;48.186;11.526;2022-07-11T02:42:16;21.90;72.50
34640;DHT22;22600;48.186;11.526;2022-07-11T02:44:41;21.90;72.50
34640;DHT22;22600;48.186;11.526;2022-07-11T02:47:07;21.90;72.50
34640;DHT22;22600;48.186;11.526;2022-07-11T02:49:32;21.90;72.50
34640;DHT22;22600;48.186;11.526;2022-07-11T02:51:59;21.90;72.50
34640;DHT22;22600;48.186;11.526;2022-07-11T02:54:24;21.90;72.50
34640;DHT22;22600;48.186;11.526;2022-07-11T02:56:50;21.90;72.50
34640;DHT22;22600;48.186;11.526;2022-07-11T02:59:16;21.90;72.50
34640;DHT22;22600;48.186;11.526;2022-07-11T03:01:41;21.90;72.50
34640;DHT22;22600;48.186;11.526;2022-07-11T03:04:08;21.90;72.50
34640;DHT22;22600;48.186;11.526;2022-07-11T03:06:34;21.90;72.50
34640;DHT22;22600;48.186;11.526;2022-07-11T03:08:59;21.90;72.50
34640;DHT22;22600;48.186;11.526;2022-07-11T03:11:25;21.90;72.50
34640;DHT22;22600;48.186;11.526;2022-07-11T03:13:50;21.90;72.40
34640;DHT22;22600;48.186;11.526;2022-07-11T03:16:16;21.90;72.50
34640;DHT22;22600;48.186;11.526;2022-07-11T03:18:42;21.90;72.40
34640;DHT22;22600;48.186;11.526;2022-07-11T03:21:07;21.90;72.40
34640;DHT22;22600;48.186;11.526;2022-07-11T03:23:33;21.80;72.30
34640;DHT22;22600;48.186;11.526;2022-07-11T03:26:00;21.90;72.40
34640;DHT22;22600;48.186;11.526;2022-07-11T03:28:25;21.90;72.40
34640;DHT22;22600;48.186;11.526;2022-07-11T03:30:51;21.80;72.40
34640;DHT22;22600;48.186;11.526;2022-07-11T03:33:16;21.80;72.40
34640;DHT22;22600;48.186;11.526;2022-07-11T03:35:42;21.80;72.30
34640;DHT22;22600;48.186;11.526;2022-07-11T03:38:09;21.80;72.30
34640;DHT22;22600;48.186;11.526;2022-07-11T03:40:35;21.80;72.30
34640;DHT22;22600;48.186;11.526;2022-07-11T03:43:00;21.80;72.30
34640;DHT22;22600;48.186;11.526;2022-07-11T03:45:27;21.90;72.40
34640;DHT22;22600;48.186;11.526;2022-07-11T03:47:53;21.80;72.40
34640;DHT22;22600;48.186;11.526;2022-07-11T03:50:19;21.80;72.40
34640;DHT22;22600;48.186;11.526;2022-07-11T03:52:44;21.80;72.50
34640;DHT22;22600;48.186;11.526;2022-07-11T03:55:10;21.80;72.50
34640;DHT22;22600;48.186;11.526;2022-07-11T03:57:36;21.80;72.50
34640;DHT22;22600;48.186;11.526;2022-07-11T04:00:03;21.80;72.50
34640;DHT22;22600;48.186;11.526;2022-07-11T04:02:32;21.80;72.50
34640;DHT22;22600;48.186;11.526;2022-07-11T04:04:58;21.80;72.60
34640;DHT22;22600;48.186;11.526;2022-07-11T04:07:23;21.80;72.70
34640;DHT22;22600;48.186;11.526;2022-07-11T04:09:49;21.80;72.40
34640;DHT22;22600;48.186;11.526;2022-07-11T04:12:15;21.80;71.80
34640;DHT22;22600;48.186;11.526;2022-07-11T04:14:43;23.90;72.90
34640;DHT22;22600;48.186;11.526;2022-07-11T04:17:09;21.80;71.20
34640;DHT22;22600;48.186;11.526;2022-07-11T04:19:34;23.20;71.80
34640;DHT22;22600;48.186;11.526;2022-07-11T04:22:00;21.80;70.70
34640;DHT22;22600;48.186;11.526;2022-07-11T04:24:25;21.70;70.50
34640;DHT22;22600;48.186;11.526;2022-07-11T04:26:51;21.80;70.40
34640;DHT22;22600;48.186;11.526;2022-07-11T04:29:17;21.80;70.20
34640;DHT22;22600;48.186;11.526;2022-07-11T04:31:42;21.80;70.00
34640;DHT22;22600;48.186;11.526;2022-07-11T04:34:08;21.80;69.80
34640;DHT22;22600;48.186;11.526;2022-07-11T04:36:33;21.70;69.60
34640;DHT22;22600;48.186;11.526;2022-07-11T04:38:59;21.70;69.50
34640;DHT22;22600;48.186;11.526;2022-07-11T04:41:24;21.70;69.40
34640;DHT22;22600;48.186;11.526;2022-07-11T04:43:50;21.70;69.40
34640;DHT22;22600;48.186;11.526;2022-07-11T04:46:15;21.70;69.40
34640;DHT22;22600;48.186;11.526;2022-07-11T04:48:41;21.70;69.30
34640;DHT22;22600;48.186;11.526;2022-07-11T04:51:07;20.80;68.70
34640;DHT22;22600;48.186;11.526;2022-07-11T04:53:33;21.70;69.20
34640;DHT22;22600;48.186;11.526;2022-07-11T04:55:59;21.70;69.20
34640;DHT22;22600;48.186;11.526;2022-07-11T04:58:25;21.70;69.30
34640;DHT22;22600;48.186;11.526;2022-07-11T05:00:50;21.70;69.20
34640;DHT22;22600;48.186;11.526;2022-07-11T05:03:17;21.60;69.00
34640;DHT22;22600;48.186;11.526;2022-07-11T05:05:42;21.70;69.00
34640;DHT22;22600;48.186;11.526;2022-07-11T05:08:08;21.60;68.90
34640;DHT22;22600;48.186;11.526;2022-07-11T05:10:33;21.70;69.00
34640;DHT22;22600;48.186;11.526;2022-07-11T05:13:04;24.00;70.30
34640;DHT22;22600;48.186;11.526;2022-07-11T05:15:30;21.70;68.70
34640;DHT22;22600;48.186;11.526;2022-07-11T05:17:56;21.70;68.60
34640;DHT22;22600;48.186;11.526;2022-07-11T05:20:22;21.70;68.40
34640;DHT22;22600;48.186;11.526;2022-07-11T05:22:47;21.80;68.40
34640;DHT22;22600;48.186;11.526;2022-07-11T05:25:13;21.70;68.30
34640;DHT22;22600;48.186;11.526;2022-07-11T05:27:39;21.80;68.20
34640;DHT22;22600;48.186;11.526;2022-07-11T05:30:05;21.80;68.20
34640;DHT22;22600;48.186;11.526;2022-07-11T05:32:31;21.80;68.00
34640;DHT22;22600;48.186;11.526;2022-07-11T05:34:57;21.70;67.90
34640;DHT22;22600;48.186;11.526;2022-07-11T05:37:24;21.90;67.90
34640;DHT22;22600;48.186;11.526;2022-07-11T05:39:49;21.80;67.70
34640;DHT22;22600;48.186;11.526;2022-07-11T05:42:16;21.80;67.60
34640;DHT22;22600;48.186;11.526;2022-07-11T05:44:42;21.90;67.50
34640;DHT22;22600;48.186;11.526;2022-07-11T05:47:08;21.90;67.40
34640;DHT22;22600;48.186;11.526;2022-07-11T05:49:33;21.90;67.30
34640;DHT22;22600;48.186;11.526;2022-07-11T05:51:59;21.90;67.30
34640;DHT22;22600;48.186;11.526;2022-07-11T05:54:25;21.90;67.20
34640;DHT22;22600;48.186;11.526;2022-07-11T05:56:51;21.90;67.10
34640;DHT22;22600;48.186;11.526;2022-07-11T05:59:16;21.90;67.10
34640;DHT22;22600;48.186;11.526;2022-07-11T06:01:43;21.90;67.00
34640;DHT22;22600;48.186;11.526;2022-07-11T06:04:09;22.00;66.90
34640;DHT22;22600;48.186;11.526;2022-07-11T06:06:35;21.90;66.70
34640;DHT22;22600;48.186;11.526;2022-07-11T06:09:01;21.90;66.40
34640;DHT22;22600;48.186;11.526;2022-07-11T06:11:27;22.00;66.40
34640;DHT22;22600;48.186;11.526;2022-07-11T06:13:53;22.00;66.30
34640;DHT22;22600;48.186;11.526;2022-07-11T06:16:19;22.00;66.10
34640;DHT22;22600;48.186;11.526;2022-07-11T06:18:46;22.00;66.00
34640;DHT22;22600;48.186;11.526;2022-07-11T06:21:12;22.00;65.70
34640;DHT22;22600;48.186;11.526;2022-07-11T06:23:37;22.00;65.60
34640;DHT22;22600;48.186;11.526;2022-07-11T06:26:03;22.00;65.40
34640;DHT22;22600;48.186;11.526;2022-07-11T06:28:29;22.00;65.30
34640;DHT22;22600;48.186;11.526;2022-07-11T06:30:55;22.00;65.20
34640;DHT22;22600;48.186;11.526;2022-07-11T06:33:21;22.00;65.10
34640;DHT22;22600;48.186;11.526;2022-07-11T06:35:47;22.70;65.30
34640;DHT22;22600;48.186;11.526;2022-07-11T06:38:14;22.00;64.70
34640;DHT22;22600;48.186;11.526;2022-07-11T06:40:39;22.00;64.60
34640;DHT22;22600;48.186;11.526;2022-07-11T06:43:07;22.00;64.40
34640;DHT22;22600;48.186;11.526;2022-07-11T06:45:35;22.00;64.50
34640;DHT22;22600;48.186;11.526;2022-07-11T06:48:01;22.00;64.40
34640;DHT22;22600;48.186;11.526;2022-07-11T06:50:26;22.00;64.40
34640;DHT22;22600;48.186;11.526;2022-07-11T06:52:52;22.00;64.40
34640;DHT22;22600;48.186;11.526;2022-07-11T06:55:18;22.00;64.40
34640;DHT22;22600;48.186;11.526;2022-07-11T06:57:44;21.90;64.20
34640;DHT22;22600;48.186;11.526;2022-07-11T07:00:10;22.00;64.20
34640;DHT22;22600;48.186;11.526;2022-07-11T07:02:36;22.00;64.40
34640;DHT22;22600;48.186;11.526;2022-07-11T07:05:05;21.90;64.30
34640;DHT22;22600;48.186;11.526;2022-07-11T07:07:31;21.90;64.40
34640;DHT22;22600;48.186;11.526;2022-07-11T07:09:57;21.90;64.30
34640;DHT22;22600;48.186;11.526;2022-07-11T07:12:23;21.90;64.10
34640;DHT22;22600;48.186;11.526;2022-07-11T07:14:49;21.90;64.10
34640;DHT22;22600;48.186;11.526;2022-07-11T07:17:15;21.90;64.10
34640;DHT22;22600;48.186;11.526;2022-07-11T07:19:41;21.90;64.00
34640;DHT22;22600;48.186;11.526;2022-07-11T07:22:07;21.90;64.00
34640;DHT22;22600;48.186;11.526;2022-07-11T07:24:36;21.90;64.80
34640;DHT22;22600;48.186;11.526;2022-07-11T07:27:05;21.90;64.00
34640;DHT22;22600;48.186;11.526;2022-07-11T07:29:31;21.80;63.90
34640;DHT22;22600;48.186;11.526;2022-07-11T07:31:58;21.80;63.90
34640;DHT22;22600;48.186;11.526;2022-07-11T07:34:24;21.80;64.20
34640;DHT22;22600;48.186;11.526;2022-07-11T07:36:50;21.80;64.30
34640;DHT22;22600;48.186;11.526;2022-07-11T07:39:17;21.80;64.20
34640;DHT22;22600;48.186;11.526;2022-07-11T07:41:43;21.80;64.80
34640;DHT22;22600;48.186;11.526;2022-07-11T07:44:11;21.80;64.20
34640;DHT22;22600;48.186;11.526;2022-07-11T07:46:37;21.70;64.10
34640;DHT22;22600;48.186;11.526;2022-07-11T07:49:03;21.80;64.30
34640;DHT22;22600;48.186;11.526;2022-07-11T07:51:29;21.80;64.30
34640;DHT22;22600;48.186;11.526;2022-07-11T07:53:55;21.80;64.30
34640;DHT22;22600;48.186;11.526;2022-07-11T07:56:21;21.80;64.30
34640;DHT22;22600;48.186;11.526;2022-07-11T07:58:46;21.80;64.30
34640;DHT22;22600;48.186;11.526;2022-07-11T08:01:12;21.80;64.30
34640;DHT22;22600;48.186;11.526;2022-07-11T08:03:56;21.80;64.30
34640;DHT22;22600;48.186;11.526;2022-07-11T08:06:22;21.80;64.30
34640;DHT22;22600;48.186;11.526;2022-07-11T08:08:48;21.80;64.20
34640;DHT22;22600;48.186;11.526;2022-07-11T08:11:15;21.90;64.10
34640;DHT22;22600;48.186;11.526;2022-07-11T08:13:40;21.80;64.00
34640;DHT22;22600;48.186;11.526;2022-07-11T08:16:06;21.80;63.90
34640;DHT22;22600;48.186;11.526;2022-07-11T08:18:33;21.80;63.90
34640;DHT22;22600;48.186;11.526;2022-07-11T08:20:59;21.80;63.80
34640;DHT22;22600;48.186;11.526;2022-07-11T08:23:24;21.90;63.80
34640;DHT22;22600;48.186;11.526;2022-07-11T08:25:50;21.90;63.80
34640;DHT22;22600;48.186;11.526;2022-07-11T08:28:16;21.90;63.70
34640;DHT22;22600;48.186;11.526;2022-07-11T08:30:42;21.90;64.30
34640;DHT22;22600;48.186;11.526;2022-07-11T08:33:08;21.90;63.50
34640;DHT22;22600;48.186;11.526;2022-07-11T08:35:33;21.80;63.40
34640;DHT22;22600;48.186;11.526;2022-07-11T08:37:59;21.80;63.40
34640;DHT22;22600;48.186;11.526;2022-07-11T08:40:25;21.90;63.40
34640;DHT22;22600;48.186;11.526;2022-07-11T08:42:50;21.90;63.30
34640;DHT22;22600;48.186;11.526;2022-07-11T08:45:17;21.90;63.30
34640;DHT22;22600;48.186;11.526;2022-07-11T08:47:44;21.90;63.30
34640;DHT22;22600;48.186;11.526;2022-07-11T08:50:10;21.90;63.20
34640;DHT22;22600;48.186;11.526;2022-07-11T08:52:37;21.80;63.10
34640;DHT22;22600;48.186;11.526;2022-07-11T08:55:03;21.80;63.00
34640;DHT22;22600;48.186;11.526;2022-07-11T08:57:36;21.80;63.00
34640;DHT22;22600;48.186;11.526;2022-07-11T09:00:06;21.80;63.00
34640;DHT22;22600;48.186;11.526;2022-07-11T09:02:33;21.80;63.00
34640;DHT22;22600;48.186;11.526;2022-07-11T09:05:00;21.80;63.00
34640;DHT22;22600;48.186;11.526;2022-07-11T09:07:27;21.80;63.00
34640;DHT22;22600;48.186;11.526;2022-07-11T09:09:54;21.80;63.00
34640;DHT22;22600;48.186;11.526;2022-07-11T09:12:20;21.80;63.00
34640;DHT22;22600;48.186;11.526;2022-07-11T09:14:50;21.80;63.00
34640;DHT22;22600;48.186;11.526;2022-07-11T09:17:25;21.80;63.00
34640;DHT22;22600;48.186;11.526;2022-07-11T09:19:54;21.80;63.10
34640;DHT22;22600;48.186;11.526;2022-07-11T09:22:20;21.80;63.10
34640;DHT22;22600;48.186;11.526;2022-07-11T09:25:09;21.80;63.20
34640;DHT22;22600;48.186;11.526;2022-07-11T09:28:02;21.70;63.20
34640;DHT22;22600;48.186;11.526;2022-07-11T09:30:33;21.70;63.20
34640;DHT22;22600;48.186;11.526;2022-07-11T09:33:06;21.80;63.30
34640;DHT22;22600;48.186;11.526;2022-07-11T09:35:35;21.70;63.10
34640;DHT22;22600;48.186;11.526;2022-07-11T09:38:06;21.70;63.10
34640;DHT22;22600;48.186;11.526;2022-07-11T09:40:32;21.70;63.10
34640;DHT22;22600;48.186;11.526;2022-07-11T09:42:59;21.70;63.10
34640;DHT22;22600;48.186;11.526;2022-07-11T09:45:27;21.70;63.10
34640;DHT22;22600;48.186;11.526;2022-07-11T09:47:59;21.70;63.20
34640;DHT22;22600;48.186;11.526;2022-07-11T09:50:27;21.70;63.10
34640;DHT22;22600;48.186;11.526;2022-07-11T09:53:12;21.70;63.10
34640;DHT22;22600;48.186;11.526;2022-07-11T09:55:45;21.70;63.10
34640;DHT22;22600;48.186;11.526;2022-07-11T09:58:13;21.70;63.10
34640;DHT22;22600;48.186;11.526;2022-07-11T10:00:40;21.70;63.10
34640;DHT22;22600;48.186;11.526;2022-07-11T10:03:07;21.70;63.10
34640;DHT22;22600;48.186;11.526;2022-07-11T10:05:33;21.70;63.10
34640;DHT22;22600;48.186;11.526;2022-07-11T10:07:59;21.70;63.10
34640;DHT22;22600;48.186;11.526;2022-07-11T10:10:26;21.70;63.00
34640;DHT22;22600;48.186;11.526;2022-07-11T10:12:53;21.70;63.00
34640;DHT22;22600;48.186;11.526;2022-07-11T10:15:34;21.70;63.00
34640;DHT22;22600;48.186;11.526;2022-07-11T10:26:03;21.70;63.10
34640;DHT22;22600;48.186;11.526;2022-07-11T10:28:54;21.70;63.20
34640;DHT22;22600;48.186;11.526;2022-07-11T10:31:22;21.70;63.20
34640;DHT22;22600;48.186;11.526;2022-07-11T10:36:27;21.60;63.20
34640;DHT22;22600;48.186;11.526;2022-07-11T10:39:12;21.60;63.20
34640;DHT22;22600;48.186;11.526;2022-07-11T10:41:38;21.70;63.30
34640;DHT22;22600;48.186;11.526;2022-07-11T10:44:04;21.60;63.20
34640;DHT22;22600;48.186;11.526;2022-07-11T10:46:30;21.60;63.20
34640;DHT22;22600;48.186;11.526;2022-07-11T10:51:54;21.60;63.20
34640;DHT22;22600;48.186;11.526;2022-07-11T10:57:22;21.60;63.20
34640;DHT22;22600;48.186;11.526;2022-07-11T11:00:10;21.60;63.20
34640;DHT22;22600;48.186;11.526;2022-07-11T11:05:54;21.60;63.30
34640;DHT22;22600;48.186;11.526;2022-07-11T11:16:40;21.60;63.00
34640;DHT22;22600;48.186;11.526;2022-07-11T11:19:06;21.60;62.90
34640;DHT22;22600;48.186;11.526;2022-07-11T11:21:31;21.60;62.90
34640;DHT22;22600;48.186;11.526;2022-07-11T11:26:47;21.60;62.90
34640;DHT22;22600;48.186;11.526;2022-07-11T11:29:25;21.60;62.90
34640;DHT22;22600;48.186;11.526;2022-07-11T11:31:54;21.60;62.80
34640;DHT22;22600;48.186;11.526;2022-07-11T11:34:20;21.60;62.90
34640;DHT22;22600;48.186;11.526;2022-07-11T11:36:58;21.60;62.90
34640;DHT22;22600;48.186;11.526;2022-07-11T11:39:26;21.60;62.80
34640;DHT22;22600;48.186;11.526;2022-07-11T11:41:52;21.60;62.80
34640;DHT22;22600;48.186;11.526;2022-07-11T11:44:17;21.60;62.90
34640;DHT22;22600;48.186;11.526;2022-07-11T11:46:43;21.60;63.00
34640;DHT22;22600;48.186;11.526;2022-07-11T11:49:08;21.60;63.00
34640;DHT22;22600;48.186;11.526;2022-07-11T11:51:34;21.60;63.00
34640;DHT22;22600;48.186;11.526;2022-07-11T11:54:02;21.60;63.80
34640;DHT22;22600;48.186;11.526;2022-07-11T11:56:30;21.60;63.10
34640;DHT22;22600;48.186;11.526;2022-07-11T11:59:00;21.60;63.10
34640;DHT22;22600;48.186;11.526;2022-07-11T12:01:28;21.60;63.10
34640;DHT22;22600;48.186;11.526;2022-07-11T12:03:54;21.60;63.10
34640;DHT22;22600;48.186;11.526;2022-07-11T12:06:34;21.60;63.20
34640;DHT22;22600;48.186;11.526;2022-07-11T12:11:26;21.60;63.20
34640;DHT22;22600;48.186;11.526;2022-07-11T12:13:56;21.60;63.20
34640;DHT22;22600;48.186;11.526;2022-07-11T12:16:22;21.50;63.20
34640;DHT22;22600;48.186;11.526;2022-07-11T12:19:13;21.60;63.20
34640;DHT22;22600;48.186;11.526;2022-07-11T12:21:45;21.50;63.40
34640;DHT22;22600;48.186;11.526;2022-07-11T12:24:17;21.60;63.20
34640;DHT22;22600;48.186;11.526;2022-07-11T12:26:43;21.50;63.20
34640;DHT22;22600;48.186;11.526;2022-07-11T12:29:14;21.50;63.20
34640;DHT22;22600;48.186;11.526;2022-07-11T12:34:19;21.60;63.30
34640;DHT22;22600;48.186;11.526;2022-07-11T12:36:45;21.60;63.30
34640;DHT22;22600;48.186;11.526;2022-07-11T12:39:25;21.50;63.30
34640;DHT22;22600;48.186;11.526;2022-07-11T12:41:52;21.60;63.40
34640;DHT22;22600;48.186;11.526;2022-07-11T12:44:26;21.60;63.30
34640;DHT22;22600;48.186;11.526;2022-07-11T12:47:10;21.60;63.40
34640;DHT22;22600;48.186;11.526;2022-07-11T12:49:36;21.50;63.40
34640;DHT22;22600;48.186;11.526;2022-07-11T12:52:02;21.60;63.50
34640;DHT22;22600;48.186;11.526;2022-07-11T12:54:30;21.50;63.40
34640;DHT22;22600;48.186;11.526;2022-07-11T12:56:57;21.60;63.50
34640;DHT22;22600;48.186;11.526;2022-07-11T12:59:24;21.50;63.40
34640;DHT22;22600;48.186;11.526;2022-07-11T13:02:06;21.60;63.50
34640;DHT22;22600;48.186;11.526;2022-07-11T13:04:49;21.50;63.40
34640;DHT22;22600;48.186;11.526;2022-07-11T13:07:25;21.50;63.40
34640;DHT22;22600;48.186;11.526;2022-07-11T13:10:12;21.60;63.50
34640;DHT22;22600;48.186;11.526;2022-07-11T13:12:39;24.30;65.20
34640;DHT22;22600;48.186;11.526;2022-07-11T13:15:06;21.60;63.50
34640;DHT22;22600;48.186;11.526;2022-07-11T13:17:39;21.60;63.50
34640;DHT22;22600;48.186;11.526;2022-07-11T13:20:13;21.50;63.50
34640;DHT22;22600;48.186;11.526;2022-07-11T13:22:40;21.50;63.60
34640;DHT22;22600;48.186;11.526;2022-07-11T13:25:06;21.60;63.70
34640;DHT22;22600;48.186;11.526;2022-07-11T13:27:32;21.50;63.70
34640;DHT22;22600;48.186;11.526;2022-07-11T13:29:59;21.50;63.70
34640;DHT22;22600;48.186;11.526;2022-07-11T13:32:25;21.50;63.70
34640;DHT22;22600;48.186;11.526;2022-07-11T13:34:51;21.50;64.50
34640;DHT22;22600;48.186;11.526;2022-07-11T13:37:16;21.50;63.80
34640;DHT22;22600;48.186;11.526;2022-07-11T13:39:42;21.60;64.00
34640;DHT22;22600;48.186;11.526;2022-07-11T13:42:08;21.50;63.90
34640;DHT22;22600;48.186;11.526;2022-07-11T13:44:33;21.50;63.90
34640;DHT22;22600;48.186;11.526;2022-07-11T13:46:59;21.50;64.10
34640;DHT22;22600;48.186;11.526;2022-07-11T13:49:24;21.50;64.20
34640;DHT22;22600;48.186;11.526;2022-07-11T13:51:50;21.50;64.30
34640;DHT22;22600;48.186;11.526;2022-07-11T13:54:17;21.50;64.40
34640;DHT22;22600;48.186;11.526;2022-07-11T13:56:43;21.60;64.40
34640;DHT22;22600;48.186;11.526;2022-07-11T13:59:08;20.70;64.10
34640;DHT22;22600;48.186;11.526;2022-07-11T14:01:34;21.50;64.60
34640;DHT22;22600;48.186;11.526;2022-07-11T14:03:59;21.60;65.10
34640;DHT22;22600;48.186;11.526;2022-07-11T14:06:25;21.60;65.40
34640;DHT22;22600;48.186;11.526;2022-07-11T14:08:50;21.60;65.60
34640;DHT22;22600;48.186;11.526;2022-07-11T14:11:16;21.60;65.90
34640;DHT22;22600;48.186;11.526;2022-07-11T14:13:42;21.60;66.00
34640;DHT22;22600;48.186;11.526;2022-07-11T14:16:08;21.70;66.10
34640;DHT22;22600;48.186;11.526;2022-07-11T14:18:33;21.70;66.20
34640;DHT22;22600;48.186;11.526;2022-07-11T14:20:59;21.70;66.30
34640;DHT22;22600;48.186;11.526;2022-07-11T14:23:24;21.70;66.30
34640;DHT22;22600;48.186;11.526;2022-07-11T14:25:51;21.70;66.30
34640;DHT22;22600;48.186;11.526;2022-07-11T14:28:17;21.80;66.30
34640;DHT22;22600;48.186;11.526;2022-07-11T14:30:44;21.70;66.10
34640;DHT22;22600;48.186;11.526;2022-07-11T14:33:09;21.80;65.90
34640;DHT22;22600;48.186;11.526;2022-07-11T14:35:35;21.80;65.80
34640;DHT22;22600;48.186;11.526;2022-07-11T14:38:01;21.80;65.60
34640;DHT22;22600;48.186;11.526;2022-07-11T14:40:27;21.80;65.50
34640;DHT22;22600;48.186;11.526;2022-07-11T14:42:53;21.90;65.40
34640;DHT22;22600;48.186;11.526;2022-07-11T14:45:18;21.90;65.40
34640;DHT22;22600;48.186;11.526;2022-07-11T14:47:44;21.90;65.20
34640;DHT22;22600;48.186;11.526;2022-07-11T14:50:10;21.90;64.90
34640;DHT22;22600;48.186;11.526;2022-07-11T14:52:36;21.80;64.80
34640;DHT22;22600;48.186;11.526;2022-07-11T14:55:02;21.90;64.90
34640;DHT22;22600;48.186;11.526;2022-07-11T14:57:28;21.90;64.80
34640;DHT22;22600;48.186;11.526;2022-07-11T14:59:53;21.90;64.80
34640;DHT22;22600;48.186;11.526;2022-07-11T15:02:20;21.90;64.90
34640;DHT22;22600;48.186;11.526;2022-07-11T15:05:05;21.80;64.90
34640;DHT22;22600;48.186;11.526;2022-07-11T15:07:31;21.90;65.10
34640;DHT22;22600;48.186;11.526;2022-07-11T15:10:15;21.90;65.20
34640;DHT22;22600;48.186;11.526;2022-07-11T15:12:59;21.90;65.40
34640;DHT22;22600;48.186;11.526;2022-07-11T15:15:25;21.90;65.50
34640;DHT22;22600;48.186;11.526;2022-07-11T15:17:50;21.90;65.60
34640;DHT22;22600;48.186;11.526;2022-07-11T15:20:16;21.90;65.70
34640;DHT22;22600;48.186;11.526;2022-07-11T15:22:42;21.90;65.70
34640;DHT22;22600;48.186;11.526;2022-07-11T15:25:07;21.90;65.70
34640;DHT22;22600;48.186;11.526;2022-07-11T15:27:33;21.90;65.80
34640;DHT22;22600;48.186;11.526;2022-07-11T15:29:59;22.00;65.90
34640;DHT22;22600;48.186;11.526;2022-07-11T15:32:24;21.90;65.80
34640;DHT22;22600;48.186;11.526;2022-07-11T15:34:50;21.90;65.60
34640;DHT22;22600;48.186;11.526;2022-07-11T15:37:16;21.90;65.30
34640;DHT22;22600;48.186;11.526;2022-07-11T15:39:42;21.90;65.10
34640;DHT22;22600;48.186;11.526;2022-07-11T15:42:07;21.90;64.90
34640;DHT22;22600;48.186;11.526;2022-07-11T15:44:33;21.90;64.90
34640;DHT22;22600;48.186;11.526;2022-07-11T15:46:59;21.90;65.00
34640;DHT22;22600;48.186;11.526;2022-07-11T15:49:24;21.90;65.20
34640;DHT22;22600;48.186;11.526;2022-07-11T15:51:50;21.90;65.30
34640;DHT22;22600;48.186;11.526;2022-07-11T15:54:17;21.90;65.40